Jenkins Bridge, Virginia
Current Conditions -  °F | °C
As of 1:54 AM on Saturday 29 Nov 2014 (Local Time) from KWAL Reporting Station
Clear Clear  
Wind Chill: 25°   Ceiling: Unl
Heat Index: 25°   Visibility: 10mi
Dew Point: 20°   Wind: 3mph
Humidity: 81%   Direction: 340°NNW
Pressure: 30.33"   Gusts: NA
Location:  37.92°N, 75.63°W
Report Text: KWAL 290654Z AUTO 34003KT 10SM CLR M04/M07 A3033 RMK AO2 SLP267 T10391067
Loading
Personal Weather Stations






























Interactive Weather Map New forecast layout! Learn more

10-Day Weather Forecast

Advertisements
Track Severe Weather on mobile